Time;durP1;ratioP1;P1;durP2;ratioP2;P2;SDS_P1;SDS_P2;PMS_P1;PMS_P2;Temp;Humidity;BMP_temperature;BMP_pressure;BME280_temperature;BME280_humidity;BME280_pressure;Samples;Min_cycle;Max_cycle;Signal;HPM_P1;HPM_P2
2021/05/27 00:01:09;;;;;;;;;;;;;;;21.13;45.93;101525.88;2206383;39;115867;-52
2021/05/27 00:02:41;;;;;;;;;;;;;;;21.15;45.99;101532.03;2212420;39;115601;-51
2021/05/27 00:04:12;;;;;;;;;;;;;;;21.14;46.20;101531.22;2209554;39;115527;-52
2021/05/27 00:05:44;;;;;;;;;;;;;;;21.15;46.24;101532.03;2206692;39;115680;-52
2021/05/27 00:07:16;;;;;;;;;;;;;;;21.12;46.12;101530.63;2206742;39;115273;-52
2021/05/27 00:08:47;;;;;;;;;;;;;;;21.13;46.34;101537.94;2213875;39;115741;-52
2021/05/27 00:10:20;;;;;;;;;;;;;;;21.12;46.31;101541.06;2212905;39;115665;-52
2021/05/27 00:11:53;;;;;;;;;;;;;;;21.13;45.98;101537.94;2214843;39;115292;-51
2021/05/27 00:13:25;;;;;;;;;;;;;;;21.12;46.56;101538.25;2209940;39;115471;-53
2021/05/27 00:14:57;;;;;;;;;;;;;;;21.12;46.67;101541.06;2216212;39;116102;-51
2021/05/27 00:16:31;;;;;;;;;;;;;;;21.10;46.29;101535.72;2216588;39;113798;-52
2021/05/27 00:18:02;;;;;;;;;;;;;;;21.09;46.52;101533.19;2216247;39;115635;-52
2021/05/27 00:19:34;;;;;;;;;;;;;;;21.09;46.70;101534.03;2215342;39;113695;-52
2021/05/27 00:21:06;;;;;;;;;;;;;;;21.09;46.59;101531.22;2212823;39;114976;-53
2021/05/27 00:22:38;;;;;;;;;;;;;;;21.09;46.46;101536.00;2207409;39;113674;-52
2021/05/27 00:24:10;;;;;;;;;;;;;;;21.08;46.59;101534.31;2212949;39;113735;-52
2021/05/27 00:25:42;;;;;;;;;;;;;;;21.07;46.82;101536.31;2205230;39;113984;-53
2021/05/27 00:27:13;;;;;;;;;;;;;;;21.07;46.29;101541.94;2213835;39;113977;-52
2021/05/27 00:28:45;;;;;;;;;;;;;;;21.07;47.01;101535.47;2209325;39;114310;-52
2021/05/27 00:30:17;;;;;;;;;;;;;;;21.07;46.68;101541.09;2214201;39;113830;-52
2021/05/27 00:31:49;;;;;;;;;;;;;;;21.07;46.63;101535.47;2211604;39;113958;-52
2021/05/27 00:33:23;;;;;;;;;;;;;;;21.07;46.57;101541.09;2215765;39;113622;-52
2021/05/27 00:34:54;;;;;;;;;;;;;;;21.08;46.79;101539.94;2216509;39;114166;-53
2021/05/27 00:36:26;;;;;;;;;;;;;;;21.07;46.74;101544.75;2220152;39;113571;-52
2021/05/27 00:37:58;;;;;;;;;;;;;;;21.07;47.01;101541.09;2216752;39;114952;-52
2021/05/27 00:39:29;;;;;;;;;;;;;;;21.05;46.76;101543.34;2216325;39;114225;-52
2021/05/27 00:41:01;;;;;;;;;;;;;;;21.06;46.73;101536.63;2215903;39;114866;-52
2021/05/27 00:42:33;;;;;;;;;;;;;;;21.04;46.92;101541.69;2216454;39;115295;-52
2021/05/27 00:44:18;;;;;;;;;;;;;;;21.06;46.48;101545.88;2216939;39;114906;-52
2021/05/27 00:45:49;;;;;;;;;;;;;;;21.03;47.03;101545.66;2209551;39;114923;-52
2021/05/27 00:47:21;;;;;;;;;;;;;;;21.05;46.49;101546.16;2214556;39;114968;-52
2021/05/27 00:50:34;;;;;;;;;;;;;;;21.03;47.03;101551.25;2216592;39;113922;-52
2021/05/27 00:52:05;;;;;;;;;;;;;;;21.03;47.09;101554.06;2213260;39;114565;-52
2021/05/27 00:53:37;;;;;;;;;;;;;;;21.02;47.08;101558.84;2217038;39;114923;-52
2021/05/27 00:55:10;;;;;;;;;;;;;;;21.02;46.72;101553.22;2209868;39;114927;-52
2021/05/27 00:56:42;;;;;;;;;;;;;;;21.02;46.91;101549.59;2207493;39;114046;-51
2021/05/27 00:58:16;;;;;;;;;;;;;;;21.03;46.77;101551.25;2210177;39;114460;-52
2021/05/27 00:59:48;;;;;;;;;;;;;;;21.03;47.15;101554.06;2212695;39;115927;-52
2021/05/27 01:01:20;;;;;;;;;;;;;;;21.00;46.83;101557.47;2214850;39;115970;-54
2021/05/27 01:02:52;;;;;;;;;;;;;;;21.02;46.93;101552.38;2209690;39;114547;-52
2021/05/27 01:04:24;;;;;;;;;;;;;;;21.00;47.29;101558.28;2210452;39;115823;-52
2021/05/27 01:05:56;;;;;;;;;;;;;;;21.01;47.02;101565.59;2212809;39;115649;-52
2021/05/27 01:07:28;;;;;;;;;;;;;;;21.01;46.98;101567.56;2215547;39;115688;-52
2021/05/27 01:09:00;;;;;;;;;;;;;;;20.99;47.21;101565.03;2208691;39;114768;-52
2021/05/27 01:10:32;;;;;;;;;;;;;;;20.99;47.03;101565.03;2211167;39;115562;-53
2021/05/27 01:12:04;;;;;;;;;;;;;;;21.00;46.74;101568.69;2216179;39;114683;-53
2021/05/27 01:13:36;;;;;;;;;;;;;;;21.00;46.85;101574.31;2216055;39;114571;-52
2021/05/27 01:16:51;;;;;;;;;;;;;;;21.01;47.04;101573.19;2215117;39;115956;-53
2021/05/27 01:18:24;;;;;;;;;;;;;;;21.00;46.72;101577.13;2217069;39;115657;-52
2021/05/27 01:19:56;;;;;;;;;;;;;;;20.99;46.75;101569.81;2216050;39;115608;-52
2021/05/27 01:21:31;;;;;;;;;;;;;;;21.00;46.77;101572.34;2210957;39;113894;-52
2021/05/27 01:23:03;;;;;;;;;;;;;;;20.97;46.62;101572.09;2209613;39;113854;-52
2021/05/27 01:24:36;;;;;;;;;;;;;;;20.97;46.81;101575.75;2201957;39;113859;-51
2021/05/27 01:26:10;;;;;;;;;;;;;;;21.01;47.04;101573.19;2211498;39;114083;-52
2021/05/27 01:27:42;;;;;;;;;;;;;;;21.01;46.76;101571.22;2213539;39;113930;-51
2021/05/27 01:29:13;;;;;;;;;;;;;;;20.99;47.30;101575.44;2212765;39;113546;-52
2021/05/27 01:30:45;;;;;;;;;;;;;;;21.00;47.06;101568.69;2215020;39;113786;-51
2021/05/27 01:32:17;;;;;;;;;;;;;;;20.96;47.21;101565.66;2210866;39;114265;-51
2021/05/27 01:33:49;;;;;;;;;;;;;;;20.97;46.98;101570.13;2212345;39;113587;-52
2021/05/27 01:35:22;;;;;;;;;;;;;;;20.95;46.94;101572.38;2216726;39;114063;-52
2021/05/27 01:36:54;;;;;;;;;;;;;;;20.95;47.18;101572.38;2216087;39;113758;-53
2021/05/27 01:38:27;;;;;;;;;;;;;;;20.96;46.92;101571.25;2212238;39;113610;-52
2021/05/27 01:40:01;;;;;;;;;;;;;;;20.93;46.94;101569.06;2214495;39;113763;-52
2021/05/27 01:41:32;;;;;;;;;;;;;;;20.95;46.69;101583.63;2217008;39;114143;-52
2021/05/27 01:43:04;;;;;;;;;;;;;;;20.92;46.64;101577.78;2220288;39;113805;-52
2021/05/27 01:44:36;;;;;;;;;;;;;;;20.92;47.02;101577.78;2216556;39;114059;-52
2021/05/27 01:46:07;;;;;;;;;;;;;;;20.91;46.81;101576.94;2217021;39;114950;-52
2021/05/27 01:47:40;;;;;;;;;;;;;;;20.90;46.78;101571.59;2215356;39;114112;-53
2021/05/27 01:49:11;;;;;;;;;;;;;;;20.91;46.61;101576.09;2212402;39;114832;-52
2021/05/27 01:50:44;;;;;;;;;;;;;;;20.90;46.68;101580.03;2213023;39;115433;-52
2021/05/27 01:52:16;;;;;;;;;;;;;;;20.91;46.76;101578.91;2205728;39;115075;-51
2021/05/27 01:53:48;;;;;;;;;;;;;;;20.89;47.14;101584.00;2204504;39;115494;-53
2021/05/27 01:55:19;;;;;;;;;;;;;;;20.88;46.77;101580.34;2202097;39;114957;-52
2021/05/27 01:56:51;;;;;;;;;;;;;;;20.85;46.96;101581.75;2212534;39;114959;-52
2021/05/27 01:58:23;;;;;;;;;;;;;;;20.88;46.66;101585.97;2214271;39;114876;-53
2021/05/27 01:59:55;;;;;;;;;;;;;;;20.86;46.78;101591.88;2213804;39;115697;-52
2021/05/27 02:01:26;;;;;;;;;;;;;;;20.87;46.78;101592.69;2213049;39;113836;-52
2021/05/27 02:02:58;;;;;;;;;;;;;;;20.87;46.78;101589.91;2217333;39;114225;-52
2021/05/27 02:04:30;;;;;;;;;;;;;;;20.84;47.21;101582.91;2208716;39;115070;-52
2021/05/27 02:06:01;;;;;;;;;;;;;;;20.84;46.65;101582.91;2211065;39;115636;-52
2021/05/27 02:07:33;;;;;;;;;;;;;;;20.85;47.08;101584.56;2215284;39;115689;-51
2021/05/27 02:10:47;;;;;;;;;;;;;;;20.85;47.05;101590.19;2216648;39;115092;-52
2021/05/27 02:12:18;;;;;;;;;;;;;;;20.85;46.72;101593.00;2217306;39;115460;-52
2021/05/27 02:13:50;;;;;;;;;;;;;;;20.83;46.83;101592.47;2217050;39;115467;-53
2021/05/27 02:15:22;;;;;;;;;;;;;;;20.84;47.12;101599.75;2217234;39;114638;-52
2021/05/27 02:16:54;;;;;;;;;;;;;;;20.83;46.85;101597.25;2204532;39;116123;-51
2021/05/27 02:18:25;;;;;;;;;;;;;;;20.83;46.95;101600.03;2208535;39;115598;-52
2021/05/27 02:19:57;;;;;;;;;;;;;;;20.81;46.99;101600.34;2217462;39;115878;-52
2021/05/27 02:21:29;;;;;;;;;;;;;;;20.80;46.98;101601.47;2211707;39;115740;-52
2021/05/27 02:23:00;;;;;;;;;;;;;;;20.79;47.10;101597.00;2215938;39;115631;-52
2021/05/27 02:24:32;;;;;;;;;;;;;;;20.79;46.94;101597.00;2217545;39;115658;-53
2021/05/27 02:26:03;;;;;;;;;;;;;;;20.78;47.11;101609.34;2215367;39;115685;-52
2021/05/27 02:27:35;;;;;;;;;;;;;;;20.80;46.97;101609.88;2209541;39;113720;-52
2021/05/27 02:29:07;;;;;;;;;;;;;;;20.78;46.84;101609.34;2215314;39;113967;-53
2021/05/27 02:30:39;;;;;;;;;;;;;;;20.77;46.96;101602.06;2216149;39;113595;-51
2021/05/27 02:32:11;;;;;;;;;;;;;;;20.77;46.91;101607.66;2202577;39;114133;-52
2021/05/27 02:33:42;;;;;;;;;;;;;;;20.77;46.54;101610.47;2203760;39;113776;-53
2021/05/27 02:35:14;;;;;;;;;;;;;;;20.79;46.87;101610.19;2205486;39;113672;-51
2021/05/27 02:36:46;;;;;;;;;;;;;;;20.76;46.90;101607.97;2212501;39;113987;-52
2021/05/27 02:38:17;;;;;;;;;;;;;;;20.75;46.91;101607.16;2214136;39;113842;-52
2021/05/27 02:39:49;;;;;;;;;;;;;;;20.74;46.82;101601.81;2215464;39;114095;-52
2021/05/27 02:41:21;;;;;;;;;;;;;;;20.74;47.08;101604.63;2215488;39;113847;-52
2021/05/27 02:42:53;;;;;;;;;;;;;;;20.76;46.90;101607.97;2209764;39;114016;-52
2021/05/27 02:44:24;;;;;;;;;;;;;;;20.73;46.85;101603.78;2215158;39;113872;-51
2021/05/27 02:45:56;;;;;;;;;;;;;;;20.73;47.18;101616.97;2217050;39;113605;-52
2021/05/27 02:47:48;;;;;;;;;;;;;;;20.72;47.03;101606.88;2212760;39;113944;-52
2021/05/27 02:49:20;;;;;;;;;;;;;;;20.71;47.26;101608.88;2216358;39;114194;-52
2021/05/27 02:50:52;;;;;;;;;;;;;;;20.71;47.18;101600.44;2203640;39;114952;-52
2021/05/27 02:52:23;;;;;;;;;;;;;;;20.71;47.41;101603.25;2211989;39;115087;-53
2021/05/27 02:53:55;;;;;;;;;;;;;;;20.71;46.87;101600.44;2213749;39;115410;-53
2021/05/27 02:55:26;;;;;;;;;;;;;;;20.72;47.32;101604.06;2214316;39;114945;-52
2021/05/27 02:56:59;;;;;;;;;;;;;;;20.69;47.45;101602.69;2209349;39;113964;-52
2021/05/27 02:58:31;;;;;;;;;;;;;;;20.69;47.17;101601.84;2214940;39;115157;-52
2021/05/27 03:00:04;;;;;;;;;;;;;;;20.69;47.06;101599.03;2214561;39;113840;-52
2021/05/27 03:01:37;;;;;;;;;;;;;;;20.71;47.26;101608.03;2209139;39;114848;-54
2021/05/27 03:03:08;;;;;;;;;;;;;;;20.69;47.38;101608.31;2207628;39;114989;-52
2021/05/27 03:04:40;;;;;;;;;;;;;;;20.69;47.26;101615.88;2211603;39;115365;-53
2021/05/27 03:06:12;;;;;;;;;;;;;;;20.68;47.10;101611.41;2210264;39;114964;-52
2021/05/27 03:07:43;;;;;;;;;;;;;;;20.69;47.51;101613.09;2214785;39;115005;-53
2021/05/27 03:09:15;;;;;;;;;;;;;;;20.67;47.64;101607.75;2215149;39;114784;-52
2021/05/27 03:10:47;;;;;;;;;;;;;;;20.69;47.33;101619.53;2206565;39;115906;-52
2021/05/27 03:12:19;;;;;;;;;;;;;;;20.67;47.79;101616.19;2212413;39;115820;-52
2021/05/27 03:13:50;;;;;;;;;;;;;;;20.67;47.52;101618.19;2216504;39;115277;-52
2021/05/27 03:15:22;;;;;;;;;;;;;;;20.69;47.65;101627.13;2214923;39;115483;-52
2021/05/27 03:16:54;;;;;;;;;;;;;;;20.66;47.45;101625.75;2208562;39;114943;-52
2021/05/27 03:18:25;;;;;;;;;;;;;;;20.67;47.54;101623.78;2213762;39;115652;-52
2021/05/27 03:19:57;;;;;;;;;;;;;;;20.67;47.47;101621.78;2216728;39;114734;-52
2021/05/27 03:21:29;;;;;;;;;;;;;;;20.67;47.86;101615.38;2217306;39;115474;-53
2021/05/27 03:23:01;;;;;;;;;;;;;;;20.66;47.54;101627.72;2214283;39;115419;-53
2021/05/27 03:24:32;;;;;;;;;;;;;;;20.64;47.68;101622.38;2210137;39;114867;-53
2021/05/27 03:26:04;;;;;;;;;;;;;;;20.61;47.72;101625.78;2214246;39;115618;-52
2021/05/27 03:27:36;;;;;;;;;;;;;;;20.62;48.08;101626.63;2210185;39;115621;-52
2021/05/27 03:29:08;;;;;;;;;;;;;;;20.62;48.12;101629.44;2205368;39;115547;-52
2021/05/27 03:30:40;;;;;;;;;;;;;;;20.60;47.84;101621.31;2205072;39;115533;-52
2021/05/27 03:32:11;;;;;;;;;;;;;;;20.61;48.25;101620.19;2217481;39;116813;-52
2021/05/27 03:33:43;;;;;;;;;;;;;;;20.63;48.07;101622.66;2210259;39;113690;-52
2021/05/27 03:35:15;;;;;;;;;;;;;;;20.62;47.88;101624.66;2203254;39;114249;-53
2021/05/27 03:36:47;;;;;;;;;;;;;;;20.62;47.89;101616.25;2202348;39;114002;-52
2021/05/27 03:38:18;;;;;;;;;;;;;;;20.59;47.90;101616.81;2206997;39;113988;-52
2021/05/27 03:41:31;;;;;;;;;;;;;;;20.59;47.85;101616.81;2217426;39;114098;-52
2021/05/27 03:43:03;;;;;;;;;;;;;;;20.58;48.11;101614.31;2217078;39;113709;-52
2021/05/27 03:44:35;;;;;;;;;;;;;;;20.58;48.24;101617.13;2216880;39;113862;-52
2021/05/27 03:46:07;;;;;;;;;;;;;;;20.57;48.13;101626.66;2217177;39;113895;-52
2021/05/27 03:47:39;;;;;;;;;;;;;;;20.57;47.87;101624.69;2207628;39;114169;-52
2021/05/27 03:49:12;;;;;;;;;;;;;;;20.59;47.88;101624.38;2213039;39;114112;-54
2021/05/27 03:50:44;;;;;;;;;;;;;;;20.58;47.86;101631.97;2217007;39;114007;-52
2021/05/27 03:52:15;;;;;;;;;;;;;;;20.58;47.97;101639.59;2216108;39;114247;-52
2021/05/27 03:53:47;;;;;;;;;;;;;;;20.57;48.19;101637.91;2213698;39;113837;-53
2021/05/27 03:55:20;;;;;;;;;;;;;;;20.56;47.73;101628.63;2203311;39;115590;-53
2021/05/27 03:56:52;;;;;;;;;;;;;;;20.55;48.17;101626.94;2211608;39;114970;-52
2021/05/27 04:01:48;;;;;;;;;;;;;;;20.54;47.73;101642.09;2214798;39;115126;-52
2021/05/27 04:03:21;;;;;;;;;;;;;;;20.54;47.82;101647.72;2216883;39;114812;-52
2021/05/27 04:08:16;;;;;;;;;;;;;;;20.50;48.29;101641.03;2214919;39;114715;-52
2021/05/27 04:09:48;;;;;;;;;;;;;;;20.52;47.79;101646.34;2216567;39;113732;-52
2021/05/27 04:11:20;;;;;;;;;;;;;;;20.53;47.81;101645.22;2216226;39;114806;-52
2021/05/27 04:12:52;;;;;;;;;;;;;;;20.53;48.00;101650.84;2213846;39;115042;-51
2021/05/27 04:14:23;;;;;;;;;;;;;;;20.50;48.31;101646.63;2216517;39;113937;-52
2021/05/27 04:15:55;;;;;;;;;;;;;;;20.53;48.27;101648.03;2218994;39;114789;-52
2021/05/27 04:17:27;;;;;;;;;;;;;;;20.52;47.81;101655.63;2216824;39;116706;-52
2021/05/27 04:18:59;;;;;;;;;;;;;;;20.52;48.05;101658.44;2217051;39;115803;-53
2021/05/27 04:20:32;;;;;;;;;;;;;;;20.53;47.76;101642.41;2217072;39;115712;-52
2021/05/27 04:22:03;;;;;;;;;;;;;;;20.51;47.62;101653.09;2209292;39;115508;-52
2021/05/27 04:23:36;;;;;;;;;;;;;;;20.49;47.75;101660.97;2207812;39;114569;-52
2021/05/27 04:25:10;;;;;;;;;;;;;;;20.49;47.80;101653.38;2208079;39;115405;-53
2021/05/27 04:26:41;;;;;;;;;;;;;;;20.49;47.67;101647.75;2208087;39;115570;-52
2021/05/27 04:28:13;;;;;;;;;;;;;;;20.47;47.94;101652.00;2211582;39;114595;-52
2021/05/27 04:29:45;;;;;;;;;;;;;;;20.47;47.74;101650.03;2217207;39;115501;-52
2021/05/27 04:31:18;;;;;;;;;;;;;;;20.47;47.82;101646.38;2206083;39;114890;-52
2021/05/27 04:33:07;;;;;;;;;;;;;;;20.46;47.90;101659.56;2207042;39;115545;-52
2021/05/27 04:34:39;;;;;;;;;;;;;;;20.45;47.79;101662.66;2208961;39;116048;-52
2021/05/27 04:36:11;;;;;;;;;;;;;;;20.45;48.09;101660.69;2213817;39;114574;-52
2021/05/27 04:37:43;;;;;;;;;;;;;;;20.44;47.96;101653.44;2211133;39;114555;-52
2021/05/27 04:39:15;;;;;;;;;;;;;;;20.44;48.22;101661.84;2213884;39;114001;-52
2021/05/27 04:40:48;;;;;;;;;;;;;;;20.42;48.18;101659.31;2213921;39;113782;-52
2021/05/27 04:42:19;;;;;;;;;;;;;;;20.43;48.21;101662.97;2217018;39;113879;-52
2021/05/27 04:43:54;;;;;;;;;;;;;;;20.42;48.20;101664.94;2209966;39;113700;-52
2021/05/27 04:45:26;;;;;;;;;;;;;;;20.42;48.44;101664.94;2214642;39;113856;-51
2021/05/27 04:46:58;;;;;;;;;;;;;;;20.44;48.12;101670.28;2205778;39;113957;-53
2021/05/27 04:48:30;;;;;;;;;;;;;;;20.43;47.92;101671.41;2214303;39;114097;-52
2021/05/27 04:50:03;;;;;;;;;;;;;;;20.47;47.28;101674.47;2205682;39;113681;-52
2021/05/27 04:51:34;;;;;;;;;;;;;;;20.45;48.44;101677.53;2202932;39;113811;-52
2021/05/27 04:53:06;;;;;;;;;;;;;;;20.48;48.67;101681.75;2213444;39;113795;-52
2021/05/27 04:54:38;;;;;;;;;;;;;;;20.51;48.77;101678.34;2208870;39;113797;-51
2021/05/27 04:56:10;;;;;;;;;;;;;;;20.52;48.34;101680.88;2212161;39;113580;-52
2021/05/27 04:57:41;;;;;;;;;;;;;;;20.55;48.70;101679.44;2213829;39;113910;-51
2021/05/27 04:59:13;;;;;;;;;;;;;;;20.57;48.77;101682.81;2210670;39;113782;-52
2021/05/27 05:00:46;;;;;;;;;;;;;;;20.58;48.62;101690.13;2214286;39;113600;-52
2021/05/27 05:02:18;;;;;;;;;;;;;;;20.61;48.96;101684.75;2212247;39;114929;-52
2021/05/27 05:03:49;;;;;;;;;;;;;;;20.65;48.92;101690.63;2215291;39;115145;-52
2021/05/27 05:05:21;;;;;;;;;;;;;;;20.69;49.20;101691.72;2216685;39;115084;-53
2021/05/27 05:06:53;;;;;;;;;;;;;;;20.72;48.83;101686.34;2209366;39;114167;-52
2021/05/27 05:08:25;;;;;;;;;;;;;;;20.81;48.82;101695.81;2211917;39;114543;-52
2021/05/27 05:09:57;;;;;;;;;;;;;;;20.80;48.90;101696.94;2207993;39;116341;-53
2021/05/27 05:11:28;;;;;;;;;;;;;;;20.83;48.45;101690.78;2213764;39;113871;-52
2021/05/27 05:13:01;;;;;;;;;;;;;;;20.85;47.87;101699.72;2215300;39;115448;-52
2021/05/27 05:14:33;;;;;;;;;;;;;;;20.86;47.62;101690.16;2216278;39;115162;-52
2021/05/27 05:16:04;;;;;;;;;;;;;;;20.90;47.11;101698.00;2216862;39;114901;-51
2021/05/27 05:17:36;;;;;;;;;;;;;;;20.92;46.96;101688.16;2208647;39;114811;-52
2021/05/27 05:19:08;;;;;;;;;;;;;;;20.94;47.04;101691.50;2214667;39;113906;-52
2021/05/27 05:20:41;;;;;;;;;;;;;;;20.95;46.70;101684.75;2210404;39;115070;-52
2021/05/27 05:22:13;;;;;;;;;;;;;;;20.98;46.60;101688.97;2205496;39;114953;-53
2021/05/27 05:23:44;;;;;;;;;;;;;;;21.01;46.13;101688.38;2211658;39;115549;-52
2021/05/27 05:25:17;;;;;;;;;;;;;;;21.03;46.04;101686.13;2212369;39;115639;-53
2021/05/27 05:26:49;;;;;;;;;;;;;;;21.05;45.73;101681.03;2216827;39;114388;-52
2021/05/27 05:28:21;;;;;;;;;;;;;;;21.08;45.56;101686.91;2213428;39;115839;-52
2021/05/27 05:29:52;;;;;;;;;;;;;;;21.11;45.61;101685.50;2209143;39;116806;-52
2021/05/27 05:31:24;;;;;;;;;;;;;;;21.13;45.54;101686.88;2214184;39;114496;-52
2021/05/27 05:32:57;;;;;;;;;;;;;;;21.19;45.44;101677.28;2217601;39;115654;-53
2021/05/27 05:34:29;;;;;;;;;;;;;;;21.22;45.25;101681.47;2214966;39;115483;-52
2021/05/27 05:36:01;;;;;;;;;;;;;;;21.26;45.65;101682.56;2207663;39;115136;-53
2021/05/27 05:37:33;;;;;;;;;;;;;;;21.28;45.91;101674.69;2211379;39;115416;-52
2021/05/27 05:39:05;;;;;;;;;;;;;;;21.33;45.48;101685.03;2210943;39;116877;-53
2021/05/27 05:40:37;;;;;;;;;;;;;;;21.37;45.85;101684.13;2205639;39;115855;-51
2021/05/27 05:42:09;;;;;;;;;;;;;;;21.41;45.79;101688.03;2210798;39;114593;-51
2021/05/27 05:43:41;;;;;;;;;;;;;;;21.45;46.07;101679.84;2214064;39;115658;-52
2021/05/27 05:45:14;;;;;;;;;;;;;;;21.49;45.69;101687.38;2215669;39;113816;-53
2021/05/27 05:46:46;;;;;;;;;;;;;;;21.54;45.86;101683.69;2205402;39;113847;-52
2021/05/27 05:48:18;;;;;;;;;;;;;;;21.56;45.68;101685.06;2215049;39;114065;-53
2021/05/27 05:49:50;;;;;;;;;;;;;;;21.62;46.04;101686.66;2217263;39;113988;-52
2021/05/27 05:51:22;;;;;;;;;;;;;;;21.68;46.31;101690.28;2217177;39;114045;-52
2021/05/27 05:52:54;;;;;;;;;;;;;;;21.71;45.84;101689.69;2217154;39;113649;-52
2021/05/27 05:54:26;;;;;;;;;;;;;;;21.76;45.91;101691.63;2207120;39;113709;-52
2021/05/27 05:55:57;;;;;;;;;;;;;;;21.81;45.55;101685.91;2215101;39;114104;-52
2021/05/27 05:57:29;;;;;;;;;;;;;;;21.83;45.69;101683.66;2205717;39;113725;-52
2021/05/27 05:59:01;;;;;;;;;;;;;;;21.87;45.47;101684.72;2215294;39;114106;-52
2021/05/27 06:00:34;;;;;;;;;;;;;;;21.91;45.65;101688.59;2216975;39;113746;-53
2021/05/27 06:02:07;;;;;;;;;;;;;;;21.94;45.42;101691.69;2211963;39;113605;-52
2021/05/27 06:03:40;;;;;;;;;;;;;;;21.97;45.33;101691.09;2217522;39;113710;-53
2021/05/27 06:05:13;;;;;;;;;;;;;;;22.01;45.68;101694.16;2212907;39;114162;-53
2021/05/27 06:06:51;;;;;;;;;;;;;;;22.03;45.51;101701.13;2213113;39;114935;-52
2021/05/27 06:08:24;;;;;;;;;;;;;;;22.06;45.53;101703.38;2205871;39;114602;-53
2021/05/27 06:10:03;;;;;;;;;;;;;;;22.08;45.52;101706.72;2212483;39;114048;-52
2021/05/27 06:11:36;;;;;;;;;;;;;;;22.11;45.46;101706.13;2217072;39;115178;-52
2021/05/27 06:13:08;;;;;;;;;;;;;;;22.13;45.47;101697.34;2217620;39;114792;-53
2021/05/27 06:14:40;;;;;;;;;;;;;;;22.15;45.53;101707.19;2210103;39;114718;-53
2021/05/27 06:16:13;;;;;;;;;;;;;;;22.16;45.22;101711.69;2213249;39;114095;-52
2021/05/27 06:17:45;;;;;;;;;;;;;;;22.18;45.51;101708.56;2217410;39;114503;-52
2021/05/27 06:19:21;;;;;;;;;;;;;;;22.19;45.13;101707.41;2217287;39;113918;-52
2021/05/27 06:21:00;;;;;;;;;;;;;;;22.20;45.13;101714.75;2216101;39;114791;-52
2021/05/27 06:22:36;;;;;;;;;;;;;;;22.22;44.98;101718.06;2217197;39;113912;-53
2021/05/27 06:24:08;;;;;;;;;;;;;;;22.23;45.17;101705.69;2217666;39;113833;-52
2021/05/27 06:25:41;;;;;;;;;;;;;;;22.23;45.02;101714.13;2214935;39;115982;-52
2021/05/27 06:27:14;;;;;;;;;;;;;;;22.25;44.87;101717.50;2218305;39;113860;-52
2021/05/27 06:28:47;;;;;;;;;;;;;;;22.26;45.05;101719.13;2216128;39;115850;-52
2021/05/27 06:30:22;;;;;;;;;;;;;;;22.26;45.05;101721.16;2216665;39;114527;-52
2021/05/27 06:31:58;;;;;;;;;;;;;;;22.27;45.04;101722.81;2216503;39;116120;-52
2021/05/27 06:33:31;;;;;;;;;;;;;;;22.27;45.10;101726.47;2213874;39;114588;-52
2021/05/27 06:35:07;;;;;;;;;;;;;;;22.28;44.96;101718.84;2216384;39;115130;-52
2021/05/27 06:36:39;;;;;;;;;;;;;;;22.29;45.13;101717.72;2207380;39;114730;-52
2021/05/27 06:38:14;;;;;;;;;;;;;;;22.29;44.84;101720.53;2213978;39;116052;-53
2021/05/27 06:39:50;;;;;;;;;;;;;;;22.28;44.80;101716.88;2215755;39;114547;-52
2021/05/27 06:41:22;;;;;;;;;;;;;;;22.28;44.72;101714.06;2209944;39;114906;-51
2021/05/27 06:42:55;;;;;;;;;;;;;;;22.29;44.68;101710.13;2207370;39;114948;-52
2021/05/27 06:44:27;;;;;;;;;;;;;;;22.28;44.89;101713.22;2208020;39;114738;-51
2021/05/27 06:46:00;;;;;;;;;;;;;;;22.29;45.01;101717.72;2214687;39;114632;-52
2021/05/27 06:47:35;;;;;;;;;;;;;;;22.29;45.09;101715.75;2215848;39;114657;-52
2021/05/27 06:49:09;;;;;;;;;;;;;;;22.30;44.90;101714.63;2216376;39;115511;-52
2021/05/27 06:50:41;;;;;;;;;;;;;;;22.31;44.94;101723.88;2219397;39;115535;-53
2021/05/27 06:52:13;;;;;;;;;;;;;;;22.31;44.72;101719.06;2208593;39;114303;-53
2021/05/27 06:53:46;;;;;;;;;;;;;;;22.31;45.09;101723.88;2208600;39;113705;-52
2021/05/27 06:55:19;;;;;;;;;;;;;;;22.32;45.21;101725.56;2214074;39;113848;-52
2021/05/27 06:56:52;;;;;;;;;;;;;;;22.31;44.87;101724.72;2208384;39;113804;-52
2021/05/27 06:58:24;;;;;;;;;;;;;;;22.30;44.92;101733.47;2213936;39;114015;-52
2021/05/27 06:59:56;;;;;;;;;;;;;;;22.25;44.97;101728.75;2215561;39;113935;-52
2021/05/27 07:01:27;;;;;;;;;;;;;;;22.23;44.94;101733.81;2212802;39;114274;-51
2021/05/27 07:03:00;;;;;;;;;;;;;;;22.22;44.70;101726.50;2215329;39;113835;-52
2021/05/27 07:04:31;;;;;;;;;;;;;;;22.22;44.34;101725.69;2209655;39;113887;-52
2021/05/27 07:06:05;;;;;;;;;;;;;;;22.20;44.06;101719.53;2214983;39;115440;-52
2021/05/27 07:07:37;;;;;;;;;;;;;;;22.20;43.91;101723.19;2216867;39;113862;-52
2021/05/27 07:09:11;;;;;;;;;;;;;;;22.18;44.03;101731.06;2216882;39;113565;-52
2021/05/27 07:10:44;;;;;;;;;;;;;;;22.17;43.84;101721.78;2216778;39;114026;-52
2021/05/27 07:12:16;;;;;;;;;;;;;;;22.15;43.94;101732.53;2211035;39;113902;-52
2021/05/27 07:13:48;;;;;;;;;;;;;;;22.15;43.67;101726.06;2213648;39;113869;-52
2021/05/27 07:15:21;;;;;;;;;;;;;;;22.14;43.61;101730.00;2209261;39;114316;-52
2021/05/27 07:16:52;;;;;;;;;;;;;;;22.13;43.78;101728.31;2204937;39;114048;-52
2021/05/27 07:18:24;;;;;;;;;;;;;;;22.11;43.38;101736.25;2212358;39;115015;-53
2021/05/27 07:19:56;;;;;;;;;;;;;;;22.09;43.68;101730.91;2214004;39;113948;-51
2021/05/27 07:21:27;;;;;;;;;;;;;;;22.08;43.45;101734.84;2216361;39;115541;-53
2021/05/27 07:22:59;;;;;;;;;;;;;;;22.08;43.45;101739.63;2209242;39;114825;-51
2021/05/27 07:24:31;;;;;;;;;;;;;;;22.06;43.53;101739.97;2213874;39;114024;-52
2021/05/27 07:26:04;;;;;;;;;;;;;;;22.04;43.30;101736.59;2215894;39;113912;-52
2021/05/27 07:27:36;;;;;;;;;;;;;;;22.04;43.15;101736.59;2216412;39;115026;-52
2021/05/27 07:29:08;;;;;;;;;;;;;;;22.03;43.43;101740.53;2205784;39;113936;-52
2021/05/27 07:30:40;;;;;;;;;;;;;;;22.03;43.32;101740.53;2209094;39;114460;-52
2021/05/27 07:32:12;;;;;;;;;;;;;;;22.01;43.05;101741.97;2200549;39;115125;-53
2021/05/27 07:33:43;;;;;;;;;;;;;;;22.00;43.04;101737.50;2213733;39;114760;-52
2021/05/27 07:35:15;;;;;;;;;;;;;;;21.99;42.89;101739.47;2211816;39;115433;-53
2021/05/27 07:36:47;;;;;;;;;;;;;;;21.91;42.74;101744.88;2205738;39;115238;-52
2021/05/27 07:38:19;;;;;;;;;;;;;;;21.94;42.93;101745.16;2209843;39;115499;-51
2021/05/27 07:39:50;;;;;;;;;;;;;;;21.94;42.79;101745.16;2209493;39;115542;-52
2021/05/27 07:41:22;;;;;;;;;;;;;;;21.93;42.76;101745.47;2205437;39;116080;-53
2021/05/27 07:42:57;;;;;;;;;;;;;;;21.90;42.83;101740.38;2212326;39;115665;-53
2021/05/27 07:44:36;;;;;;;;;;;;;;;21.91;42.80;101744.88;2208227;39;114734;-51
2021/05/27 07:46:08;;;;;;;;;;;;;;;21.85;42.69;101741.28;2211220;39;114667;-52
2021/05/27 07:47:41;;;;;;;;;;;;;;;21.85;42.64;101741.28;2215093;39;114735;-55
2021/05/27 07:49:22;;;;;;;;;;;;;;;21.85;43.00;101740.47;2217381;39;114598;-52
2021/05/27 07:51:05;;;;;;;;;;;;;;;21.83;42.89;101745.53;2212372;39;114525;-52
2021/05/27 07:52:41;;;;;;;;;;;;;;;21.80;42.78;101746.13;2211211;39;114937;-52
2021/05/27 07:54:15;;;;;;;;;;;;;;;21.79;42.68;101741.66;2212099;39;117281;-52
2021/05/27 07:55:47;;;;;;;;;;;;;;;21.80;42.84;101740.53;2212230;39;114706;-52
2021/05/27 07:57:19;;;;;;;;;;;;;;;21.77;42.47;101736.31;2210906;39;113945;-52
2021/05/27 07:58:51;;;;;;;;;;;;;;;21.75;42.54;101738.59;2215525;39;113906;-52
2021/05/27 08:00:22;;;;;;;;;;;;;;;21.74;42.46;101743.38;2208670;39;114038;-53
2021/05/27 08:01:54;;;;;;;;;;;;;;;21.74;42.68;101737.75;2207278;39;114614;-52
2021/05/27 08:03:26;;;;;;;;;;;;;;;21.72;42.56;101737.19;2213194;39;113703;-53